Aviation Digital Data Service (ADDS)

Output produced by METARs form (0125 UTC 26 November 2014)
found at http://www.aviationweather.gov/adds/metars/
 
KBFD 260053Z AUTO 29007KT 10SM OVC029 01/M06 A3010 RMK AO2 SLP211 T00061056
KBFD 252353Z AUTO 27009G18KT 10SM OVC027 02/M05 A3007 RMK AO2 SLP197 6//// T00171050 10050 20017 53029
KBFD 252334Z AUTO 28010G16KT 10SM BKN028 OVC034 02/M05 A3005 RMK AO2 T00171050
KBFD 252253Z AUTO 28009G15KT 10SM OVC032 02/M05 A3003 RMK AO2 SLP186 T00221050
KBFD 252153Z AUTO VRB05G16KT 10SM OVC037 03/M04 A3001 RMK AO2 SLP175 T00331044
KBFD 252053Z AUTO 26010G16KT 10SM OVC042 04/M04 A2998 RMK AO2 SLP163 6//// T00441039 53009
KBFD 251953Z AUTO VRB06KT 10SM OVC037 04/M04 A2995 RMK AO2 SLP153 T00441044
KBFD 251853Z AUTO 24007G15KT 220V280 10SM BKN038 04/M04 A2995 RMK AO2 SLP152 T00441044
KBFD 251753Z AUTO A2994 RMK AO2 PK WND 21026/1705 SLPNO 6//// 51007 PWINO FZRANO PNO $
KBFD 251653Z AUTO 21012G21KT A2994 RMK AO2 SLPNO PWINO FZRANO PNO $
KBFD 251553Z AUTO 24008KT 10SM SCT025 03/M03 A2994 RMK AO2 SLP149 T00281033
KBFD 251453Z AUTO 22010G17KT 190V250 10SM BKN021 02/M03 A2992 RMK AO2 SLP142 T00221033 51019
KBFD 251353Z AUTO VRB06G20KT 10SM BKN020 02/M03 A2991 RMK AO2 SLP136 T00171033
KBFD 251253Z AUTO 24007KT 10SM OVC024 01/M04 A2989 RMK AO2 SLP129 T00111039
KBFD 251207Z AUTO 23007G16KT 10SM BKN025 01/M04 A2987 RMK AO2 T00111039
KBFD 251153Z AUTO 23005G19KT 10SM FEW026 01/M04 A2986 RMK AO2 SLP119 70004 T00111044 10039 20006 53012
KBFD 251053Z AUTO 22008KT 10SM CLR 01/M04 A2984 RMK AO2 SLP111 T00111044
KBFD 250953Z AUTO 21011G17KT 10SM CLR 01/M05 A2983 RMK AO2 SLP107 T00111050
KBFD 250853Z AUTO 23014G22KT 10SM CLR 02/M05 A2983 RMK AO2 PK WND 25027/0757 SLP102 T00171050 51021
KBFD 250753Z AUTO 24012G22KT 190V260 10SM CLR 03/M05 A2981 RMK AO2 PK WND 22029/0726 SLP096 T00281050
KBFD 250653Z AUTO 24008G22KT 210V280 10SM SCT032 04/M04 A2979 RMK AO2 PK WND 21028/0634 SLP088 T00391039
KBFD 250553Z AUTO 23009G20KT 10SM OVC031 04/M03 A2976 RMK AO2 SLP078 T00391028 10117 20039 51028
KBFD 250500Z AUTO 23012G21KT 10SM BKN029 04/M02 A2976 RMK AO2 T00391022
KBFD 250453Z AUTO 24010G21KT 210V270 10SM SCT029 04/M03 A2976 RMK AO2 PK WND 27027/0433 SLP076 T00441028 401720044
KBFD 250353Z AUTO 24013G26KT 210V270 10SM FEW031 06/M01 A2971 RMK AO2 PK WND 25031/0313 SLP061 T00611011
KBFD 250253Z AUTO 24013G23KT 10SM FEW034 08/01 A2967 RMK AO2 SLP046 T00780006 53028
KBFD 250153Z AUTO 23009G19KT 10SM CLR 09/01 A2964 RMK AO2 SLP033 T00940011
KBFD 250053Z AUTO 24008G16KT 10SM CLR 11/03 A2962 RMK AO2 SLP026 T01060033
KBFD 242353Z AUTO 22007G16KT 10SM CLR 12/05 A2958 RMK AO2 SLP013 60003 T01170050 10167 20111 51049
KBFD 242253Z AUTO 23010G25KT 10SM FEW027 SCT032 BKN060 12/07 A2955 RMK AO2 PK WND 24028/2159 RAB2157E16 SLP002 P0001 T01220067
KBFD 242153Z AUTO 28013G21KT 10SM BKN048 BKN060 OVC100 14/06 A2949 RMK AO2 PK WND 24032/2055 RAB29E43 PRESRR SLP982 P0000 T01440061
KBFD 242053Z AUTO 22013G27KT 10SM BKN060 OVC075 17/05 A2943 RMK AO2 PK WND 22031/2000 RAB1959E33 SLP959 P0000 60002 T01670050 53017
KBFD 241953Z AUTO 20012G29KT 180V240 10SM BKN055 BKN070 16/05 A2941 RMK AO2 PK WND 20029/1949 RAE50 SLP952 P0000 T01610050
KBFD 241853Z AUTO 23008G21KT 200V260 8SM -RA SCT046 BKN055 OVC090 16/07 A2939 RMK AO2 PK WND 22026/1758 RAB07 SLP949 P0002 T01560067
KBFD 241753Z AUTO 21017G30KT 10SM FEW046 BKN070 OVC085 17/06 A2938 RMK AO2 PK WND 20030/1751 SLP942 60001 T01670061 10172 20128 58017
KBFD 241653Z AUTO 20013G25KT 10SM FEW037 SCT044 BKN050 17/08 A2940 RMK AO2 PK WND 20026/1610 SLP951 T01670083
KBFD 241553Z AUTO 19012G23KT 10SM SCT030 BKN039 OVC055 15/09 A2941 RMK AO2 SLP956 T01500094
KBFD 241543Z AUTO 18013G21KT 10SM BKN030 BKN040 OVC047 15/09 A2943 RMK AO2 T01500094
KBFD 241526Z AUTO 17007G15KT 10SM BKN027 OVC035 14/10 A2943 RMK AO2 T01440100
KBFD 241501Z AUTO 18008G25KT 150V220 10SM FEW022 BKN030 OVC039 14/09 A2943 RMK AO2 T01440094
KBFD 241453Z AUTO 18013G24KT 140V220 10SM SCT022 BKN028 OVC035 14/10 A2943 RMK AO2 PK WND 21030/1354 SLP962 P0001 60001 T01440100 58005
KBFD 241353Z AUTO 19013G20KT 160V230 10SM BKN019 OVC026 13/09 A2945 RMK AO2 RAB28E42 SLP969 P0000 T01330094